aviador You're here:

LEVC Decoded Metar

VALENCIA in SPAIN
Report Time2016-02-07 03:00:00
UTC Time2016-02-07 03:29:04
Flight Rules vfr VFR
Wind230° at 19 kt
W.Decomp.*RWY 30: 6.8 kt HW 17.7 kt LCW
W.Rank230° ranks 22
Current wind is above 230° avg. (8.2)
Visibility9999 m
Phenomena:N/A
Clouds:Few 060 Hf
Expected CloudBase > 4,000 ft AGL from Temp-Dew spread
CeilingNone
Temp17°C (ISA +2)
Dew Point07°C (52% RH)
AAT9.5°C
QNH1010 hPa
Density Alt725 ft
Elevation203 ft
Report Wrong Elevation
Raw Report
METAR LEVC 070300Z 23019KT 9999 FEW060 17/07 Q1010 NOSIG=

Extra information for LEVC:More info

Metar Taf Metar & Taf Last 4 Metars F.Rules Stats Wind Profile Meteogram Temp Stats Airport Information Weather charts Add Link Nearby VenuesMetar ALERT Operation Metar Decoded Social comments

Webcam Valencia